sensor_id;sensor_type;location;lat;lon;timestamp;P1;durP1;ratioP1;P2;durP2;ratioP2
20619;SDS011;10469;42.720;23.252;2023-10-08T00:01:02;10.80;;;5.40;;
20619;SDS011;10469;42.720;23.252;2023-10-08T00:03:28;8.90;;;4.78;;
20619;SDS011;10469;42.720;23.252;2023-10-08T00:05:54;13.45;;;4.60;;
20619;SDS011;10469;42.720;23.252;2023-10-08T00:08:21;8.48;;;4.60;;
20619;SDS011;10469;42.720;23.252;2023-10-08T00:10:48;11.18;;;4.65;;
20619;SDS011;10469;42.720;23.252;2023-10-08T00:13:14;9.02;;;4.72;;
20619;SDS011;10469;42.720;23.252;2023-10-08T00:15:43;7.75;;;4.03;;
20619;SDS011;10469;42.720;23.252;2023-10-08T00:18:20;9.35;;;4.75;;
20619;SDS011;10469;42.720;23.252;2023-10-08T00:20:47;9.38;;;4.50;;
20619;SDS011;10469;42.720;23.252;2023-10-08T00:23:45;7.90;;;3.80;;
20619;SDS011;10469;42.720;23.252;2023-10-08T00:26:18;8.55;;;4.03;;
20619;SDS011;10469;42.720;23.252;2023-10-08T00:28:49;7.35;;;3.95;;
20619;SDS011;10469;42.720;23.252;2023-10-08T00:31:16;5.30;;;3.70;;
20619;SDS011;10469;42.720;23.252;2023-10-08T00:33:42;9.63;;;4.35;;
20619;SDS011;10469;42.720;23.252;2023-10-08T00:36:12;7.22;;;3.67;;
20619;SDS011;10469;42.720;23.252;2023-10-08T00:38:45;8.13;;;4.00;;
20619;SDS011;10469;42.720;23.252;2023-10-08T00:41:23;8.15;;;4.20;;
20619;SDS011;10469;42.720;23.252;2023-10-08T00:43:53;7.40;;;4.15;;
20619;SDS011;10469;42.720;23.252;2023-10-08T00:46:21;11.80;;;5.15;;
20619;SDS011;10469;42.720;23.252;2023-10-08T00:48:52;8.85;;;5.03;;
20619;SDS011;10469;42.720;23.252;2023-10-08T00:51:22;10.25;;;4.68;;
20619;SDS011;10469;42.720;23.252;2023-10-08T00:56:42;7.45;;;4.95;;
20619;SDS011;10469;42.720;23.252;2023-10-08T00:59:26;12.70;;;5.93;;
20619;SDS011;10469;42.720;23.252;2023-10-08T01:01:54;15.93;;;5.28;;
20619;SDS011;10469;42.720;23.252;2023-10-08T01:04:25;18.42;;;4.97;;
20619;SDS011;10469;42.720;23.252;2023-10-08T01:07:01;8.68;;;4.97;;
20619;SDS011;10469;42.720;23.252;2023-10-08T01:09:40;9.43;;;5.43;;
20619;SDS011;10469;42.720;23.252;2023-10-08T01:17:11;8.77;;;4.85;;
20619;SDS011;10469;42.720;23.252;2023-10-08T01:19:41;7.88;;;4.43;;
20619;SDS011;10469;42.720;23.252;2023-10-08T01:22:15;11.18;;;4.82;;
20619;SDS011;10469;42.720;23.252;2023-10-08T01:24:44;12.18;;;4.82;;
20619;SDS011;10469;42.720;23.252;2023-10-08T01:27:13;10.82;;;4.60;;
20619;SDS011;10469;42.720;23.252;2023-10-08T01:29:44;9.30;;;5.47;;
20619;SDS011;10469;42.720;23.252;2023-10-08T01:32:09;9.32;;;4.43;;
20619;SDS011;10469;42.720;23.252;2023-10-08T01:34:36;12.65;;;4.90;;
20619;SDS011;10469;42.720;23.252;2023-10-08T01:37:02;10.05;;;4.97;;
20619;SDS011;10469;42.720;23.252;2023-10-08T01:39:35;13.15;;;5.35;;
20619;SDS011;10469;42.720;23.252;2023-10-08T01:42:01;14.57;;;5.38;;
20619;SDS011;10469;42.720;23.252;2023-10-08T01:44:27;14.25;;;5.50;;
20619;SDS011;10469;42.720;23.252;2023-10-08T01:46:54;13.07;;;4.88;;
20619;SDS011;10469;42.720;23.252;2023-10-08T01:49:23;11.70;;;5.55;;
20619;SDS011;10469;42.720;23.252;2023-10-08T01:51:54;7.75;;;5.38;;
20619;SDS011;10469;42.720;23.252;2023-10-08T01:54:19;9.75;;;5.20;;
20619;SDS011;10469;42.720;23.252;2023-10-08T01:56:46;11.80;;;4.95;;
20619;SDS011;10469;42.720;23.252;2023-10-08T01:59:13;13.82;;;5.10;;
20619;SDS011;10469;42.720;23.252;2023-10-08T02:01:41;9.02;;;5.13;;
20619;SDS011;10469;42.720;23.252;2023-10-08T02:04:08;8.77;;;5.20;;
20619;SDS011;10469;42.720;23.252;2023-10-08T02:06:35;9.20;;;4.93;;
20619;SDS011;10469;42.720;23.252;2023-10-08T02:09:01;10.57;;;5.05;;
20619;SDS011;10469;42.720;23.252;2023-10-08T02:11:40;9.63;;;5.10;;
20619;SDS011;10469;42.720;23.252;2023-10-08T02:14:10;12.25;;;5.18;;
20619;SDS011;10469;42.720;23.252;2023-10-08T02:16:37;13.23;;;5.07;;
20619;SDS011;10469;42.720;23.252;2023-10-08T02:19:04;8.02;;;5.28;;
20619;SDS011;10469;42.720;23.252;2023-10-08T02:21:29;11.00;;;5.85;;
20619;SDS011;10469;42.720;23.252;2023-10-08T02:23:56;12.25;;;5.70;;
20619;SDS011;10469;42.720;23.252;2023-10-08T02:26:21;19.38;;;4.97;;
20619;SDS011;10469;42.720;23.252;2023-10-08T02:28:48;10.95;;;5.47;;
20619;SDS011;10469;42.720;23.252;2023-10-08T02:31:15;8.75;;;5.25;;
20619;SDS011;10469;42.720;23.252;2023-10-08T02:33:43;12.70;;;5.20;;
20619;SDS011;10469;42.720;23.252;2023-10-08T02:36:09;10.65;;;5.40;;
20619;SDS011;10469;42.720;23.252;2023-10-08T02:38:35;10.00;;;4.70;;
20619;SDS011;10469;42.720;23.252;2023-10-08T02:41:03;11.27;;;5.35;;
20619;SDS011;10469;42.720;23.252;2023-10-08T02:43:32;10.23;;;5.03;;
20619;SDS011;10469;42.720;23.252;2023-10-08T02:45:59;8.73;;;5.05;;
20619;SDS011;10469;42.720;23.252;2023-10-08T02:48:25;10.15;;;5.35;;
20619;SDS011;10469;42.720;23.252;2023-10-08T02:50:52;8.55;;;4.90;;
20619;SDS011;10469;42.720;23.252;2023-10-08T02:53:19;10.07;;;5.05;;
20619;SDS011;10469;42.720;23.252;2023-10-08T02:55:48;10.95;;;5.40;;
20619;SDS011;10469;42.720;23.252;2023-10-08T02:58:15;16.33;;;5.28;;
20619;SDS011;10469;42.720;23.252;2023-10-08T03:00:41;10.82;;;4.88;;
20619;SDS011;10469;42.720;23.252;2023-10-08T03:03:07;8.85;;;4.97;;
20619;SDS011;10469;42.720;23.252;2023-10-08T03:05:46;7.70;;;5.32;;
20619;SDS011;10469;42.720;23.252;2023-10-08T03:08:14;12.05;;;5.90;;
20619;SDS011;10469;42.720;23.252;2023-10-08T03:10:45;10.70;;;4.82;;
20619;SDS011;10469;42.720;23.252;2023-10-08T03:13:13;12.98;;;5.50;;
20619;SDS011;10469;42.720;23.252;2023-10-08T03:15:41;11.57;;;5.65;;
20619;SDS011;10469;42.720;23.252;2023-10-08T03:18:25;11.05;;;5.75;;
20619;SDS011;10469;42.720;23.252;2023-10-08T03:20:51;9.57;;;4.78;;
20619;SDS011;10469;42.720;23.252;2023-10-08T03:23:17;11.32;;;5.13;;
20619;SDS011;10469;42.720;23.252;2023-10-08T03:25:55;8.93;;;5.10;;
20619;SDS011;10469;42.720;23.252;2023-10-08T03:28:29;6.78;;;4.85;;
20619;SDS011;10469;42.720;23.252;2023-10-08T03:30:59;20.05;;;5.82;;
20619;SDS011;10469;42.720;23.252;2023-10-08T03:33:38;15.60;;;5.25;;
20619;SDS011;10469;42.720;23.252;2023-10-08T03:36:04;10.57;;;5.13;;
20619;SDS011;10469;42.720;23.252;2023-10-08T03:38:46;11.23;;;5.40;;
20619;SDS011;10469;42.720;23.252;2023-10-08T03:41:25;11.48;;;5.03;;
20619;SDS011;10469;42.720;23.252;2023-10-08T03:43:57;10.05;;;5.30;;
20619;SDS011;10469;42.720;23.252;2023-10-08T03:46:30;9.32;;;4.93;;
20619;SDS011;10469;42.720;23.252;2023-10-08T03:49:00;9.43;;;5.07;;
20619;SDS011;10469;42.720;23.252;2023-10-08T03:51:30;8.38;;;5.40;;
20619;SDS011;10469;42.720;23.252;2023-10-08T03:54:00;9.98;;;5.05;;
20619;SDS011;10469;42.720;23.252;2023-10-08T03:56:41;8.73;;;4.75;;
20619;SDS011;10469;42.720;23.252;2023-10-08T03:59:17;12.88;;;5.22;;
20619;SDS011;10469;42.720;23.252;2023-10-08T04:01:53;11.60;;;5.15;;
20619;SDS011;10469;42.720;23.252;2023-10-08T04:04:20;9.68;;;5.75;;
20619;SDS011;10469;42.720;23.252;2023-10-08T04:06:55;11.80;;;5.50;;
20619;SDS011;10469;42.720;23.252;2023-10-08T04:09:34;11.38;;;5.30;;
20619;SDS011;10469;42.720;23.252;2023-10-08T04:12:00;10.27;;;5.35;;
20619;SDS011;10469;42.720;23.252;2023-10-08T04:14:35;8.43;;;4.93;;
20619;SDS011;10469;42.720;23.252;2023-10-08T04:17:01;10.98;;;5.30;;
20619;SDS011;10469;42.720;23.252;2023-10-08T04:19:26;8.50;;;5.18;;
20619;SDS011;10469;42.720;23.252;2023-10-08T04:21:55;11.23;;;5.72;;
20619;SDS011;10469;42.720;23.252;2023-10-08T04:24:25;10.00;;;5.57;;
20619;SDS011;10469;42.720;23.252;2023-10-08T04:27:01;9.00;;;5.68;;
20619;SDS011;10469;42.720;23.252;2023-10-08T04:29:33;10.38;;;5.70;;
20619;SDS011;10469;42.720;23.252;2023-10-08T04:32:01;12.70;;;5.63;;
20619;SDS011;10469;42.720;23.252;2023-10-08T04:34:32;9.82;;;5.63;;
20619;SDS011;10469;42.720;23.252;2023-10-08T04:36:58;13.70;;;6.32;;
20619;SDS011;10469;42.720;23.252;2023-10-08T04:39:26;14.63;;;5.90;;
20619;SDS011;10469;42.720;23.252;2023-10-08T04:41:59;11.52;;;5.65;;
20619;SDS011;10469;42.720;23.252;2023-10-08T04:44:32;17.65;;;7.55;;
20619;SDS011;10469;42.720;23.252;2023-10-08T04:46:57;13.60;;;6.60;;
20619;SDS011;10469;42.720;23.252;2023-10-08T04:49:30;23.10;;;8.10;;
20619;SDS011;10469;42.720;23.252;2023-10-08T04:52:01;17.58;;;7.43;;
20619;SDS011;10469;42.720;23.252;2023-10-08T04:54:38;23.83;;;8.80;;
20619;SDS011;10469;42.720;23.252;2023-10-08T04:57:05;22.30;;;7.95;;
20619;SDS011;10469;42.720;23.252;2023-10-08T04:59:32;18.05;;;6.80;;
20619;SDS011;10469;42.720;23.252;2023-10-08T05:02:01;19.75;;;7.38;;
20619;SDS011;10469;42.720;23.252;2023-10-08T05:04:47;16.75;;;7.00;;
20619;SDS011;10469;42.720;23.252;2023-10-08T05:07:20;16.02;;;7.28;;
20619;SDS011;10469;42.720;23.252;2023-10-08T05:09:51;18.90;;;6.50;;
20619;SDS011;10469;42.720;23.252;2023-10-08T05:12:35;18.25;;;8.18;;
20619;SDS011;10469;42.720;23.252;2023-10-08T05:15:12;13.15;;;7.07;;
20619;SDS011;10469;42.720;23.252;2023-10-08T05:17:38;15.27;;;6.88;;
20619;SDS011;10469;42.720;23.252;2023-10-08T05:20:17;17.08;;;6.88;;
20619;SDS011;10469;42.720;23.252;2023-10-08T05:22:55;14.85;;;6.38;;
20619;SDS011;10469;42.720;23.252;2023-10-08T05:25:31;8.55;;;5.70;;
20619;SDS011;10469;42.720;23.252;2023-10-08T05:28:22;11.48;;;6.20;;
20619;SDS011;10469;42.720;23.252;2023-10-08T05:30:51;14.20;;;5.90;;
20619;SDS011;10469;42.720;23.252;2023-10-08T05:33:39;10.10;;;6.20;;
20619;SDS011;10469;42.720;23.252;2023-10-08T05:36:34;15.93;;;6.45;;
20619;SDS011;10469;42.720;23.252;2023-10-08T05:39:15;20.50;;;7.30;;
20619;SDS011;10469;42.720;23.252;2023-10-08T05:41:55;18.85;;;7.10;;
20619;SDS011;10469;42.720;23.252;2023-10-08T05:44:41;14.80;;;7.50;;
20619;SDS011;10469;42.720;23.252;2023-10-08T05:47:26;16.45;;;7.00;;
20619;SDS011;10469;42.720;23.252;2023-10-08T05:49:57;19.30;;;7.47;;
20619;SDS011;10469;42.720;23.252;2023-10-08T05:52:45;17.13;;;7.22;;
20619;SDS011;10469;42.720;23.252;2023-10-08T05:55:27;13.10;;;7.65;;
20619;SDS011;10469;42.720;23.252;2023-10-08T05:58:02;15.57;;;7.32;;
20619;SDS011;10469;42.720;23.252;2023-10-08T06:00:42;19.05;;;7.60;;
20619;SDS011;10469;42.720;23.252;2023-10-08T06:03:27;14.10;;;7.30;;
20619;SDS011;10469;42.720;23.252;2023-10-08T06:06:05;14.40;;;7.30;;
20619;SDS011;10469;42.720;23.252;2023-10-08T06:08:38;17.38;;;6.68;;
20619;SDS011;10469;42.720;23.252;2023-10-08T06:11:16;16.98;;;6.68;;
20619;SDS011;10469;42.720;23.252;2023-10-08T06:14:02;18.30;;;6.55;;
20619;SDS011;10469;42.720;23.252;2023-10-08T06:16:38;21.90;;;6.72;;
20619;SDS011;10469;42.720;23.252;2023-10-08T06:19:10;12.55;;;6.47;;
20619;SDS011;10469;42.720;23.252;2023-10-08T06:21:38;13.50;;;6.60;;
20619;SDS011;10469;42.720;23.252;2023-10-08T06:24:08;14.20;;;6.93;;
20619;SDS011;10469;42.720;23.252;2023-10-08T06:26:37;16.30;;;6.85;;
20619;SDS011;10469;42.720;23.252;2023-10-08T06:29:13;15.10;;;6.57;;
20619;SDS011;10469;42.720;23.252;2023-10-08T06:31:53;13.55;;;7.35;;
20619;SDS011;10469;42.720;23.252;2023-10-08T06:34:20;17.38;;;7.13;;
20619;SDS011;10469;42.720;23.252;2023-10-08T06:36:47;21.20;;;7.65;;
20619;SDS011;10469;42.720;23.252;2023-10-08T06:39:13;14.15;;;7.35;;
20619;SDS011;10469;42.720;23.252;2023-10-08T06:41:44;20.30;;;7.65;;
20619;SDS011;10469;42.720;23.252;2023-10-08T06:44:11;17.05;;;7.65;;
20619;SDS011;10469;42.720;23.252;2023-10-08T06:46:40;16.33;;;7.53;;
20619;SDS011;10469;42.720;23.252;2023-10-08T06:49:07;22.25;;;8.07;;
20619;SDS011;10469;42.720;23.252;2023-10-08T06:51:39;20.38;;;7.53;;
20619;SDS011;10469;42.720;23.252;2023-10-08T06:54:08;28.17;;;7.77;;
20619;SDS011;10469;42.720;23.252;2023-10-08T06:56:41;19.60;;;7.85;;
20619;SDS011;10469;42.720;23.252;2023-10-08T06:59:17;15.43;;;7.43;;
20619;SDS011;10469;42.720;23.252;2023-10-08T07:01:43;15.88;;;7.00;;
20619;SDS011;10469;42.720;23.252;2023-10-08T07:04:12;11.93;;;6.68;;
20619;SDS011;10469;42.720;23.252;2023-10-08T07:06:39;17.38;;;7.80;;
20619;SDS011;10469;42.720;23.252;2023-10-08T07:09:05;14.52;;;6.82;;
20619;SDS011;10469;42.720;23.252;2023-10-08T07:11:32;18.80;;;7.95;;
20619;SDS011;10469;42.720;23.252;2023-10-08T07:14:04;14.05;;;6.97;;
20619;SDS011;10469;42.720;23.252;2023-10-08T07:16:31;17.58;;;6.97;;
20619;SDS011;10469;42.720;23.252;2023-10-08T07:18:56;16.20;;;6.70;;
20619;SDS011;10469;42.720;23.252;2023-10-08T07:21:31;16.92;;;7.18;;
20619;SDS011;10469;42.720;23.252;2023-10-08T07:24:25;17.08;;;6.75;;
20619;SDS011;10469;42.720;23.252;2023-10-08T07:26:51;14.23;;;6.60;;
20619;SDS011;10469;42.720;23.252;2023-10-08T07:29:20;18.65;;;7.20;;
20619;SDS011;10469;42.720;23.252;2023-10-08T07:31:46;19.50;;;6.90;;
20619;SDS011;10469;42.720;23.252;2023-10-08T07:34:17;17.95;;;6.72;;
20619;SDS011;10469;42.720;23.252;2023-10-08T07:36:47;12.18;;;5.75;;
20619;SDS011;10469;42.720;23.252;2023-10-08T07:39:16;14.98;;;6.50;;
20619;SDS011;10469;42.720;23.252;2023-10-08T07:41:52;13.90;;;6.75;;
20619;SDS011;10469;42.720;23.252;2023-10-08T07:44:19;11.88;;;6.78;;
20619;SDS011;10469;42.720;23.252;2023-10-08T07:46:55;9.63;;;5.80;;
20619;SDS011;10469;42.720;23.252;2023-10-08T07:49:21;16.83;;;6.40;;
20619;SDS011;10469;42.720;23.252;2023-10-08T07:51:51;15.55;;;5.20;;
20619;SDS011;10469;42.720;23.252;2023-10-08T07:54:20;9.65;;;5.55;;
20619;SDS011;10469;42.720;23.252;2023-10-08T07:56:48;7.05;;;4.15;;
20619;SDS011;10469;42.720;23.252;2023-10-08T07:59:16;8.77;;;4.68;;
20619;SDS011;10469;42.720;23.252;2023-10-08T08:01:42;8.15;;;4.18;;
20619;SDS011;10469;42.720;23.252;2023-10-08T08:04:09;9.23;;;4.55;;
20619;SDS011;10469;42.720;23.252;2023-10-08T08:06:58;9.57;;;4.40;;
20619;SDS011;10469;42.720;23.252;2023-10-08T08:09:26;10.70;;;4.50;;
20619;SDS011;10469;42.720;23.252;2023-10-08T08:11:52;6.25;;;4.00;;
20619;SDS011;10469;42.720;23.252;2023-10-08T08:14:22;7.95;;;4.28;;
20619;SDS011;10469;42.720;23.252;2023-10-08T08:16:50;10.18;;;4.68;;
20619;SDS011;10469;42.720;23.252;2023-10-08T08:19:16;10.65;;;4.97;;
20619;SDS011;10469;42.720;23.252;2023-10-08T08:21:49;9.32;;;4.55;;
20619;SDS011;10469;42.720;23.252;2023-10-08T08:24:17;7.22;;;4.10;;
20619;SDS011;10469;42.720;23.252;2023-10-08T08:26:56;7.30;;;4.65;;
20619;SDS011;10469;42.720;23.252;2023-10-08T08:29:51;8.57;;;4.43;;
20619;SDS011;10469;42.720;23.252;2023-10-08T08:32:20;8.82;;;4.50;;
20619;SDS011;10469;42.720;23.252;2023-10-08T08:34:47;9.80;;;4.50;;
20619;SDS011;10469;42.720;23.252;2023-10-08T08:37:16;11.18;;;4.30;;
20619;SDS011;10469;42.720;23.252;2023-10-08T08:39:41;8.45;;;4.57;;
20619;SDS011;10469;42.720;23.252;2023-10-08T08:42:07;9.88;;;4.30;;
20619;SDS011;10469;42.720;23.252;2023-10-08T08:44:36;6.95;;;4.47;;
20619;SDS011;10469;42.720;23.252;2023-10-08T08:47:13;8.35;;;4.40;;
20619;SDS011;10469;42.720;23.252;2023-10-08T08:49:43;16.27;;;5.00;;
20619;SDS011;10469;42.720;23.252;2023-10-08T08:52:10;6.53;;;4.63;;
20619;SDS011;10469;42.720;23.252;2023-10-08T08:54:36;7.75;;;4.70;;
20619;SDS011;10469;42.720;23.252;2023-10-08T08:57:02;9.90;;;5.00;;
20619;SDS011;10469;42.720;23.252;2023-10-08T08:59:38;6.50;;;4.15;;
20619;SDS011;10469;42.720;23.252;2023-10-08T09:02:09;9.77;;;4.72;;
20619;SDS011;10469;42.720;23.252;2023-10-08T09:04:39;11.98;;;5.07;;
20619;SDS011;10469;42.720;23.252;2023-10-08T09:07:04;11.23;;;5.07;;
20619;SDS011;10469;42.720;23.252;2023-10-08T09:09:31;10.00;;;4.57;;
20619;SDS011;10469;42.720;23.252;2023-10-08T09:12:04;7.50;;;4.50;;
20619;SDS011;10469;42.720;23.252;2023-10-08T09:14:32;7.38;;;4.57;;
20619;SDS011;10469;42.720;23.252;2023-10-08T09:17:02;7.60;;;4.22;;
20619;SDS011;10469;42.720;23.252;2023-10-08T09:19:35;11.63;;;4.40;;
20619;SDS011;10469;42.720;23.252;2023-10-08T09:22:03;9.53;;;5.20;;
20619;SDS011;10469;42.720;23.252;2023-10-08T09:24:32;10.90;;;4.90;;
20619;SDS011;10469;42.720;23.252;2023-10-08T09:27:05;7.93;;;4.70;;
20619;SDS011;10469;42.720;23.252;2023-10-08T09:29:39;8.23;;;4.45;;
20619;SDS011;10469;42.720;23.252;2023-10-08T09:32:05;8.20;;;4.53;;
20619;SDS011;10469;42.720;23.252;2023-10-08T09:34:33;10.32;;;5.00;;
20619;SDS011;10469;42.720;23.252;2023-10-08T09:36:59;7.72;;;5.10;;
20619;SDS011;10469;42.720;23.252;2023-10-08T09:39:30;8.88;;;4.78;;
20619;SDS011;10469;42.720;23.252;2023-10-08T09:41:59;11.73;;;4.63;;
20619;SDS011;10469;42.720;23.252;2023-10-08T09:44:28;8.68;;;4.80;;
20619;SDS011;10469;42.720;23.252;2023-10-08T09:47:04;5.15;;;4.05;;
20619;SDS011;10469;42.720;23.252;2023-10-08T09:49:39;10.40;;;4.95;;
20619;SDS011;10469;42.720;23.252;2023-10-08T09:52:08;9.25;;;5.28;;
20619;SDS011;10469;42.720;23.252;2023-10-08T09:54:48;8.82;;;5.10;;
20619;SDS011;10469;42.720;23.252;2023-10-08T09:57:21;8.30;;;5.00;;
20619;SDS011;10469;42.720;23.252;2023-10-08T09:59:49;11.32;;;4.07;;
20619;SDS011;10469;42.720;23.252;2023-10-08T10:02:16;15.98;;;4.40;;
20619;SDS011;10469;42.720;23.252;2023-10-08T10:04:43;15.90;;;3.78;;
20619;SDS011;10469;42.720;23.252;2023-10-08T10:07:10;23.60;;;4.55;;
20619;SDS011;10469;42.720;23.252;2023-10-08T10:09:45;18.10;;;4.47;;
20619;SDS011;10469;42.720;23.252;2023-10-08T10:12:12;12.60;;;4.35;;
20619;SDS011;10469;42.720;23.252;2023-10-08T10:14:42;5.65;;;3.63;;
20619;SDS011;10469;42.720;23.252;2023-10-08T10:17:12;17.33;;;4.18;;
20619;SDS011;10469;42.720;23.252;2023-10-08T10:19:41;35.70;;;4.55;;
20619;SDS011;10469;42.720;23.252;2023-10-08T10:22:11;15.63;;;4.28;;
20619;SDS011;10469;42.720;23.252;2023-10-08T10:24:40;5.40;;;3.63;;
20619;SDS011;10469;42.720;23.252;2023-10-08T10:27:14;13.15;;;4.00;;
20619;SDS011;10469;42.720;23.252;2023-10-08T10:29:41;8.48;;;3.97;;
20619;SDS011;10469;42.720;23.252;2023-10-08T10:32:14;8.93;;;4.07;;
20619;SDS011;10469;42.720;23.252;2023-10-08T10:34:41;8.57;;;3.83;;
20619;SDS011;10469;42.720;23.252;2023-10-08T10:37:08;18.05;;;4.22;;
20619;SDS011;10469;42.720;23.252;2023-10-08T10:39:54;14.82;;;3.78;;
20619;SDS011;10469;42.720;23.252;2023-10-08T10:42:21;19.05;;;4.05;;
20619;SDS011;10469;42.720;23.252;2023-10-08T10:44:47;7.55;;;3.95;;
20619;SDS011;10469;42.720;23.252;2023-10-08T10:47:14;9.88;;;3.75;;
20619;SDS011;10469;42.720;23.252;2023-10-08T10:49:41;10.30;;;3.80;;
20619;SDS011;10469;42.720;23.252;2023-10-08T10:52:19;10.60;;;4.15;;
20619;SDS011;10469;42.720;23.252;2023-10-08T10:55:03;5.45;;;3.58;;
20619;SDS011;10469;42.720;23.252;2023-10-08T10:57:39;9.45;;;3.92;;
20619;SDS011;10469;42.720;23.252;2023-10-08T11:00:09;5.55;;;3.90;;
20619;SDS011;10469;42.720;23.252;2023-10-08T11:02:56;8.77;;;4.18;;
20619;SDS011;10469;42.720;23.252;2023-10-08T11:05:25;6.85;;;3.80;;
20619;SDS011;10469;42.720;23.252;2023-10-08T11:07:58;8.52;;;4.22;;
20619;SDS011;10469;42.720;23.252;2023-10-08T11:10:39;7.25;;;3.80;;
20619;SDS011;10469;42.720;23.252;2023-10-08T11:13:16;10.25;;;4.10;;
20619;SDS011;10469;42.720;23.252;2023-10-08T11:15:46;10.60;;;4.05;;
20619;SDS011;10469;42.720;23.252;2023-10-08T11:18:21;9.30;;;4.00;;
20619;SDS011;10469;42.720;23.252;2023-10-08T11:20:49;10.20;;;3.67;;
20619;SDS011;10469;42.720;23.252;2023-10-08T11:23:43;10.07;;;4.28;;
20619;SDS011;10469;42.720;23.252;2023-10-08T11:26:20;12.48;;;3.80;;
20619;SDS011;10469;42.720;23.252;2023-10-08T11:28:57;9.88;;;3.50;;
20619;SDS011;10469;42.720;23.252;2023-10-08T11:31:25;9.98;;;4.25;;
20619;SDS011;10469;42.720;23.252;2023-10-08T11:33:58;8.50;;;3.95;;
20619;SDS011;10469;42.720;23.252;2023-10-08T11:36:24;15.18;;;4.60;;
20619;SDS011;10469;42.720;23.252;2023-10-08T11:39:08;9.32;;;4.65;;
20619;SDS011;10469;42.720;23.252;2023-10-08T11:41:36;8.32;;;3.67;;
20619;SDS011;10469;42.720;23.252;2023-10-08T11:44:31;12.48;;;3.97;;
20619;SDS011;10469;42.720;23.252;2023-10-08T11:47:01;15.38;;;3.97;;
20619;SDS011;10469;42.720;23.252;2023-10-08T11:49:37;9.15;;;4.05;;
20619;SDS011;10469;42.720;23.252;2023-10-08T11:52:11;8.55;;;3.85;;
20619;SDS011;10469;42.720;23.252;2023-10-08T11:54:40;17.92;;;4.30;;
20619;SDS011;10469;42.720;23.252;2023-10-08T11:57:07;17.45;;;3.92;;
20619;SDS011;10469;42.720;23.252;2023-10-08T11:59:34;15.70;;;4.43;;
20619;SDS011;10469;42.720;23.252;2023-10-08T12:02:05;12.48;;;4.13;;
20619;SDS011;10469;42.720;23.252;2023-10-08T12:04:31;13.38;;;4.63;;
20619;SDS011;10469;42.720;23.252;2023-10-08T12:06:56;12.90;;;3.92;;
20619;SDS011;10469;42.720;23.252;2023-10-08T12:09:25;10.57;;;4.30;;
20619;SDS011;10469;42.720;23.252;2023-10-08T12:11:52;10.30;;;3.90;;
20619;SDS011;10469;42.720;23.252;2023-10-08T12:14:18;13.55;;;4.07;;
20619;SDS011;10469;42.720;23.252;2023-10-08T12:16:50;11.00;;;3.97;;
20619;SDS011;10469;42.720;23.252;2023-10-08T12:19:31;13.85;;;4.03;;
20619;SDS011;10469;42.720;23.252;2023-10-08T12:21:57;9.48;;;4.38;;
20619;SDS011;10469;42.720;23.252;2023-10-08T12:24:23;15.55;;;4.63;;
20619;SDS011;10469;42.720;23.252;2023-10-08T12:26:48;13.25;;;5.90;;
20619;SDS011;10469;42.720;23.252;2023-10-08T12:29:14;10.18;;;4.20;;
20619;SDS011;10469;42.720;23.252;2023-10-08T12:31:42;8.15;;;4.05;;
20619;SDS011;10469;42.720;23.252;2023-10-08T12:34:12;12.18;;;3.95;;
20619;SDS011;10469;42.720;23.252;2023-10-08T12:36:42;8.98;;;3.80;;
20619;SDS011;10469;42.720;23.252;2023-10-08T12:39:07;11.32;;;4.70;;
20619;SDS011;10469;42.720;23.252;2023-10-08T12:41:41;9.70;;;3.53;;
20619;SDS011;10469;42.720;23.252;2023-10-08T12:44:08;10.57;;;3.58;;
20619;SDS011;10469;42.720;23.252;2023-10-08T12:46:34;16.42;;;4.30;;
20619;SDS011;10469;42.720;23.252;2023-10-08T12:49:00;13.40;;;3.95;;
20619;SDS011;10469;42.720;23.252;2023-10-08T12:51:26;12.52;;;3.75;;
20619;SDS011;10469;42.720;23.252;2023-10-08T12:53:57;12.60;;;4.07;;
20619;SDS011;10469;42.720;23.252;2023-10-08T12:56:31;24.02;;;4.32;;
20619;SDS011;10469;42.720;23.252;2023-10-08T12:59:00;15.10;;;4.18;;
20619;SDS011;10469;42.720;23.252;2023-10-08T13:01:29;11.65;;;3.50;;
20619;SDS011;10469;42.720;23.252;2023-10-08T13:03:55;17.08;;;3.95;;
20619;SDS011;10469;42.720;23.252;2023-10-08T13:06:26;21.35;;;3.90;;
20619;SDS011;10469;42.720;23.252;2023-10-08T13:08:56;23.58;;;4.07;;
20619;SDS011;10469;42.720;23.252;2023-10-08T13:11:24;10.32;;;3.90;;
20619;SDS011;10469;42.720;23.252;2023-10-08T13:13:51;11.38;;;3.50;;
20619;SDS011;10469;42.720;23.252;2023-10-08T13:16:27;12.32;;;3.60;;
20619;SDS011;10469;42.720;23.252;2023-10-08T13:18:56;12.80;;;3.70;;
20619;SDS011;10469;42.720;23.252;2023-10-08T13:21:26;14.82;;;3.97;;
20619;SDS011;10469;42.720;23.252;2023-10-08T13:23:53;9.02;;;3.75;;
20619;SDS011;10469;42.720;23.252;2023-10-08T13:26:25;11.60;;;3.80;;
20619;SDS011;10469;42.720;23.252;2023-10-08T13:28:59;16.13;;;4.03;;
20619;SDS011;10469;42.720;23.252;2023-10-08T13:31:25;14.25;;;3.80;;
20619;SDS011;10469;42.720;23.252;2023-10-08T13:33:51;13.18;;;3.63;;
20619;SDS011;10469;42.720;23.252;2023-10-08T13:36:17;14.40;;;3.53;;
20619;SDS011;10469;42.720;23.252;2023-10-08T13:38:43;13.20;;;4.15;;
20619;SDS011;10469;42.720;23.252;2023-10-08T13:41:13;14.07;;;3.72;;
20619;SDS011;10469;42.720;23.252;2023-10-08T13:43:43;12.85;;;4.03;;
20619;SDS011;10469;42.720;23.252;2023-10-08T13:46:16;11.60;;;3.63;;
20619;SDS011;10469;42.720;23.252;2023-10-08T13:48:44;11.77;;;3.78;;
20619;SDS011;10469;42.720;23.252;2023-10-08T13:51:13;10.07;;;3.50;;
20619;SDS011;10469;42.720;23.252;2023-10-08T13:53:40;12.15;;;3.40;;
20619;SDS011;10469;42.720;23.252;2023-10-08T13:56:12;11.18;;;4.38;;
20619;SDS011;10469;42.720;23.252;2023-10-08T13:58:39;16.55;;;3.95;;
20619;SDS011;10469;42.720;23.252;2023-10-08T14:01:11;15.55;;;3.60;;
20619;SDS011;10469;42.720;23.252;2023-10-08T14:03:48;6.93;;;3.47;;
20619;SDS011;10469;42.720;23.252;2023-10-08T14:06:17;13.48;;;3.65;;
20619;SDS011;10469;42.720;23.252;2023-10-08T14:08:43;13.32;;;4.18;;
20619;SDS011;10469;42.720;23.252;2023-10-08T14:11:31;10.57;;;3.50;;
20619;SDS011;10469;42.720;23.252;2023-10-08T14:13:58;14.57;;;4.10;;
20619;SDS011;10469;42.720;23.252;2023-10-08T14:16:27;15.27;;;4.03;;
20619;SDS011;10469;42.720;23.252;2023-10-08T14:18:54;17.25;;;3.90;;
20619;SDS011;10469;42.720;23.252;2023-10-08T14:21:21;16.38;;;4.13;;
20619;SDS011;10469;42.720;23.252;2023-10-08T14:23:50;24.27;;;3.97;;
20619;SDS011;10469;42.720;23.252;2023-10-08T14:26:21;27.05;;;4.50;;
20619;SDS011;10469;42.720;23.252;2023-10-08T14:28:48;17.05;;;3.92;;
20619;SDS011;10469;42.720;23.252;2023-10-08T14:31:24;28.17;;;4.57;;
20619;SDS011;10469;42.720;23.252;2023-10-08T14:33:50;19.63;;;4.70;;
20619;SDS011;10469;42.720;23.252;2023-10-08T14:36:30;19.63;;;4.28;;
20619;SDS011;10469;42.720;23.252;2023-10-08T14:39:14;13.70;;;3.72;;
20619;SDS011;10469;42.720;23.252;2023-10-08T14:41:58;20.30;;;3.55;;
20619;SDS011;10469;42.720;23.252;2023-10-08T14:44:42;15.70;;;3.78;;
20619;SDS011;10469;42.720;23.252;2023-10-08T14:47:08;14.48;;;3.70;;
20619;SDS011;10469;42.720;23.252;2023-10-08T14:49:34;14.52;;;3.85;;
20619;SDS011;10469;42.720;23.252;2023-10-08T14:52:00;22.83;;;3.83;;
20619;SDS011;10469;42.720;23.252;2023-10-08T14:54:29;28.52;;;4.95;;
20619;SDS011;10469;42.720;23.252;2023-10-08T14:56:55;11.45;;;3.80;;